sensor_id;sensor_type;location;lat;lon;timestamp;pressure;altitude;pressure_sealevel;temperature;humidity
5988;BME280;3021;51.000;6.980;2022-10-16T00:02:19;68057.25;;;15.77;100.00
5988;BME280;3021;51.000;6.980;2022-10-16T00:04:45;68056.56;;;15.74;100.00
5988;BME280;3021;51.000;6.980;2022-10-16T00:07:10;68053.06;;;15.71;100.00
5988;BME280;3021;51.000;6.980;2022-10-16T00:09:35;68050.75;;;15.69;100.00
5988;BME280;3021;51.000;6.980;2022-10-16T00:12:01;68037.53;;;15.60;100.00
5988;BME280;3021;51.000;6.980;2022-10-16T00:14:26;68035.81;;;15.58;100.00
5988;BME280;3021;51.000;6.980;2022-10-16T00:16:51;68034.63;;;15.57;100.00
5988;BME280;3021;51.000;6.980;2022-10-16T00:19:17;68024.78;;;15.48;100.00
5988;BME280;3021;51.000;6.980;2022-10-16T00:21:42;68031.63;;;15.52;100.00
5988;BME280;3021;51.000;6.980;2022-10-16T00:24:09;68029.41;;;15.52;100.00
5988;BME280;3021;51.000;6.980;2022-10-16T00:26:36;68024.63;;;15.46;100.00
5988;BME280;3021;51.000;6.980;2022-10-16T00:29:02;68013.63;;;15.36;100.00
5988;BME280;3021;51.000;6.980;2022-10-16T00:31:28;68002.72;;;15.29;100.00
5988;BME280;3021;51.000;6.980;2022-10-16T00:33:54;68003.75;;;15.27;100.00
5988;BME280;3021;51.000;6.980;2022-10-16T00:36:24;67996.34;;;15.23;100.00
5988;BME280;3021;51.000;6.980;2022-10-16T00:38:52;67986.63;;;15.17;100.00
5988;BME280;3021;51.000;6.980;2022-10-16T00:41:19;67992.88;;;15.20;100.00
5988;BME280;3021;51.000;6.980;2022-10-16T00:43:47;67990.56;;;15.18;100.00
5988;BME280;3021;51.000;6.980;2022-10-16T00:46:38;67980.09;;;15.09;100.00
5988;BME280;3021;51.000;6.980;2022-10-16T00:49:10;67984.03;;;15.10;100.00
5988;BME280;3021;51.000;6.980;2022-10-16T00:51:39;67982.44;;;15.11;100.00
5988;BME280;3021;51.000;6.980;2022-10-16T00:54:13;67976.06;;;15.05;100.00
5988;BME280;3021;51.000;6.980;2022-10-16T00:56:39;67963.72;;;14.92;100.00
5988;BME280;3021;51.000;6.980;2022-10-16T00:59:09;67966.63;;;14.94;100.00
5988;BME280;3021;51.000;6.980;2022-10-16T01:01:36;67951.81;;;14.86;100.00
5988;BME280;3021;51.000;6.980;2022-10-16T01:04:02;67956.91;;;14.88;100.00
5988;BME280;3021;51.000;6.980;2022-10-16T01:06:42;67954.00;;;14.85;100.00
5988;BME280;3021;51.000;6.980;2022-10-16T01:09:18;67963.16;;;14.91;100.00
5988;BME280;3021;51.000;6.980;2022-10-16T01:12:10;67968.50;;;14.98;100.00
5988;BME280;3021;51.000;6.980;2022-10-16T01:14:45;67963.31;;;14.94;100.00
5988;BME280;3021;51.000;6.980;2022-10-16T01:17:16;67967.34;;;14.97;100.00
5988;BME280;3021;51.000;6.980;2022-10-16T01:20:08;67963.72;;;14.92;100.00
5988;BME280;3021;51.000;6.980;2022-10-16T01:22:50;67956.34;;;14.88;100.00
5988;BME280;3021;51.000;6.980;2022-10-16T01:28:05;67944.63;;;14.75;100.00
5988;BME280;3021;51.000;6.980;2022-10-16T01:30:34;67938.94;;;14.72;100.00
5988;BME280;3021;51.000;6.980;2022-10-16T01:33:14;67939.53;;;14.73;100.00
5988;BME280;3021;51.000;6.980;2022-10-16T01:35:46;67945.31;;;14.78;100.00
5988;BME280;3021;51.000;6.980;2022-10-16T01:38:20;67942.84;;;14.73;100.00
5988;BME280;3021;51.000;6.980;2022-10-16T01:40:55;67946.34;;;14.76;100.00
5988;BME280;3021;51.000;6.980;2022-10-16T01:43:27;67940.69;;;14.74;100.00
5988;BME280;3021;51.000;6.980;2022-10-16T01:45:56;67945.31;;;14.78;100.00
5988;BME280;3021;51.000;6.980;2022-10-16T01:48:23;67943.59;;;14.76;100.00
5988;BME280;3021;51.000;6.980;2022-10-16T01:50:57;67941.72;;;14.72;100.00
5988;BME280;3021;51.000;6.980;2022-10-16T01:53:25;67937.34;;;14.73;100.00
5988;BME280;3021;51.000;6.980;2022-10-16T01:55:52;67944.72;;;14.77;100.00
5988;BME280;3021;51.000;6.980;2022-10-16T01:58:19;67949.97;;;14.82;100.00
5988;BME280;3021;51.000;6.980;2022-10-16T02:00:46;67968.38;;;14.96;100.00
5988;BME280;3021;51.000;6.980;2022-10-16T02:03:14;67969.81;;;15.02;100.00
5988;BME280;3021;51.000;6.980;2022-10-16T02:06:01;67977.09;;;15.03;100.00
5988;BME280;3021;51.000;6.980;2022-10-16T02:08:28;67974.31;;;15.03;100.00
5988;BME280;3021;51.000;6.980;2022-10-16T02:10:56;67973.72;;;15.03;100.00
5988;BME280;3021;51.000;6.980;2022-10-16T02:13:27;67969.09;;;14.99;100.00
5988;BME280;3021;51.000;6.980;2022-10-16T02:15:54;67973.59;;;15.00;100.00
5988;BME280;3021;51.000;6.980;2022-10-16T02:18:19;67981.72;;;15.08;100.00
5988;BME280;3021;51.000;6.980;2022-10-16T02:20:50;67984.75;;;15.13;100.00
5988;BME280;3021;51.000;6.980;2022-10-16T02:23:24;67994.59;;;15.21;100.00
5988;BME280;3021;51.000;6.980;2022-10-16T02:25:53;68001.59;;;15.28;100.00
5988;BME280;3021;51.000;6.980;2022-10-16T02:28:25;68006.78;;;15.32;100.00
5988;BME280;3021;51.000;6.980;2022-10-16T02:30:57;68012.00;;;15.37;100.00
5988;BME280;3021;51.000;6.980;2022-10-16T02:33:25;68008.53;;;15.34;100.00
5988;BME280;3021;51.000;6.980;2022-10-16T02:35:53;68018.41;;;15.43;100.00
5988;BME280;3021;51.000;6.980;2022-10-16T02:38:20;68027.13;;;15.50;100.00
5988;BME280;3021;51.000;6.980;2022-10-16T02:40:46;68032.91;;;15.55;100.00
5988;BME280;3021;51.000;6.980;2022-10-16T02:43:12;68033.47;;;15.56;100.00
5988;BME280;3021;51.000;6.980;2022-10-16T02:45:37;68040.31;;;15.60;100.00
5988;BME280;3021;51.000;6.980;2022-10-16T02:48:03;68041.03;;;15.63;100.00
5988;BME280;3021;51.000;6.980;2022-10-16T02:50:29;68042.75;;;15.64;100.00
5988;BME280;3021;51.000;6.980;2022-10-16T02:52:54;68046.25;;;15.67;100.00
5988;BME280;3021;51.000;6.980;2022-10-16T02:55:19;68046.25;;;15.67;100.00
5988;BME280;3021;51.000;6.980;2022-10-16T02:57:45;68042.91;;;15.67;100.00
5988;BME280;3021;51.000;6.980;2022-10-16T03:00:13;68038.84;;;15.63;100.00
5988;BME280;3021;51.000;6.980;2022-10-16T03:02:38;68036.84;;;15.57;100.00
5988;BME280;3021;51.000;6.980;2022-10-16T03:05:04;68036.38;;;15.59;100.00
5988;BME280;3021;51.000;6.980;2022-10-16T03:07:30;68039.84;;;15.62;100.00
5988;BME280;3021;51.000;6.980;2022-10-16T03:09:55;68034.22;;;15.59;100.00
5988;BME280;3021;51.000;6.980;2022-10-16T03:12:21;68038.13;;;15.60;100.00
5988;BME280;3021;51.000;6.980;2022-10-16T03:14:47;68035.81;;;15.58;100.00
5988;BME280;3021;51.000;6.980;2022-10-16T03:17:12;68035.22;;;15.58;100.00
5988;BME280;3021;51.000;6.980;2022-10-16T03:19:38;68028.25;;;15.51;100.00
5988;BME280;3021;51.000;6.980;2022-10-16T03:22:03;68025.94;;;15.49;100.00
5988;BME280;3021;51.000;6.980;2022-10-16T03:24:29;68016.66;;;15.41;100.00
5988;BME280;3021;51.000;6.980;2022-10-16T03:26:54;68015.50;;;15.40;100.00
5988;BME280;3021;51.000;6.980;2022-10-16T03:29:19;67999.69;;;15.24;100.00
5988;BME280;3021;51.000;6.980;2022-10-16T03:31:45;67997.66;;;15.27;100.00
5988;BME280;3021;51.000;6.980;2022-10-16T03:34:10;67999.09;;;15.23;100.00
5988;BME280;3021;51.000;6.980;2022-10-16T03:36:35;67980.09;;;15.09;100.00
5988;BME280;3021;51.000;6.980;2022-10-16T03:39:01;67979.53;;;15.08;100.00
5988;BME280;3021;51.000;6.980;2022-10-16T03:41:26;67980.09;;;15.09;100.00
5988;BME280;3021;51.000;6.980;2022-10-16T03:43:52;67985.34;;;15.13;100.00
5988;BME280;3021;51.000;6.980;2022-10-16T03:46:17;67991.00;;;15.16;100.00
5988;BME280;3021;51.000;6.980;2022-10-16T03:48:42;67988.22;;;15.16;100.00
5988;BME280;3021;51.000;6.980;2022-10-16T03:51:08;67986.50;;;15.14;100.00
5988;BME280;3021;51.000;6.980;2022-10-16T03:53:33;67989.25;;;15.14;100.00
5988;BME280;3021;51.000;6.980;2022-10-16T03:55:58;67980.56;;;15.07;100.00
5988;BME280;3021;51.000;6.980;2022-10-16T03:58:24;67981.28;;;15.10;100.00
5988;BME280;3021;51.000;6.980;2022-10-16T04:00:49;67980.69;;;15.09;100.00
5988;BME280;3021;51.000;6.980;2022-10-16T04:03:14;67989.53;;;15.19;100.00
5988;BME280;3021;51.000;6.980;2022-10-16T04:05:40;67996.94;;;15.24;100.00
5988;BME280;3021;51.000;6.980;2022-10-16T04:08:06;68004.91;;;15.28;100.00
5988;BME280;3021;51.000;6.980;2022-10-16T04:10:32;68000.41;;;15.27;100.00
5988;BME280;3021;51.000;6.980;2022-10-16T04:12:57;67999.84;;;15.26;100.00
5988;BME280;3021;51.000;6.980;2022-10-16T04:15:23;67996.50;;;15.26;100.00
5988;BME280;3021;51.000;6.980;2022-10-16T04:17:50;67998.09;;;15.25;100.00
5988;BME280;3021;51.000;6.980;2022-10-16T04:20:15;68003.31;;;15.29;100.00
5988;BME280;3021;51.000;6.980;2022-10-16T04:22:41;68006.22;;;15.32;100.00
5988;BME280;3021;51.000;6.980;2022-10-16T04:25:06;68009.56;;;15.32;100.00
5988;BME280;3021;51.000;6.980;2022-10-16T04:27:32;68005.19;;;15.33;100.00
5988;BME280;3021;51.000;6.980;2022-10-16T04:29:58;68006.34;;;15.34;100.00
5988;BME280;3021;51.000;6.980;2022-10-16T04:32:24;68012.59;;;15.37;100.00
5988;BME280;3021;51.000;6.980;2022-10-16T04:34:49;68013.19;;;15.38;100.00
5988;BME280;3021;51.000;6.980;2022-10-16T04:37:15;68016.66;;;15.41;100.00
5988;BME280;3021;51.000;6.980;2022-10-16T04:39:40;68016.50;;;15.38;100.00
5988;BME280;3021;51.000;6.980;2022-10-16T04:42:05;68013.75;;;15.38;100.00
5988;BME280;3021;51.000;6.980;2022-10-16T04:44:31;68018.97;;;15.43;100.00
5988;BME280;3021;51.000;6.980;2022-10-16T04:46:56;68021.16;;;15.43;100.00
5988;BME280;3021;51.000;6.980;2022-10-16T04:49:21;68016.66;;;15.41;100.00
5988;BME280;3021;51.000;6.980;2022-10-16T04:51:47;68021.88;;;15.46;100.00
5988;BME280;3021;51.000;6.980;2022-10-16T04:54:12;68012.59;;;15.37;100.00
5988;BME280;3021;51.000;6.980;2022-10-16T04:56:38;68006.94;;;15.35;100.00
5988;BME280;3021;51.000;6.980;2022-10-16T04:59:11;68011.44;;;15.36;100.00
5988;BME280;3021;51.000;6.980;2022-10-16T05:01:36;68013.19;;;15.38;100.00
5988;BME280;3021;51.000;6.980;2022-10-16T05:04:01;68012.59;;;15.37;100.00
5988;BME280;3021;51.000;6.980;2022-10-16T05:06:27;68016.09;;;15.41;100.00
5988;BME280;3021;51.000;6.980;2022-10-16T05:08:52;68013.19;;;15.38;100.00
5988;BME280;3021;51.000;6.980;2022-10-16T05:11:18;68015.63;;;15.43;100.00
5988;BME280;3021;51.000;6.980;2022-10-16T05:13:43;68011.00;;;15.38;100.00
5988;BME280;3021;51.000;6.980;2022-10-16T05:16:08;68011.44;;;15.36;100.00
5988;BME280;3021;51.000;6.980;2022-10-16T05:18:34;68013.19;;;15.38;100.00
5988;BME280;3021;51.000;6.980;2022-10-16T05:20:59;68012.59;;;15.37;100.00
5988;BME280;3021;51.000;6.980;2022-10-16T05:23:24;68013.19;;;15.38;100.00
5988;BME280;3021;51.000;6.980;2022-10-16T05:25:55;68016.09;;;15.41;100.00
5988;BME280;3021;51.000;6.980;2022-10-16T05:28:23;68020.59;;;15.42;100.00
5988;BME280;3021;51.000;6.980;2022-10-16T05:30:48;68023.63;;;15.47;100.00
5988;BME280;3021;51.000;6.980;2022-10-16T05:33:14;68024.78;;;15.48;100.00
5988;BME280;3021;51.000;6.980;2022-10-16T05:35:39;68025.34;;;15.49;100.00
5988;BME280;3021;51.000;6.980;2022-10-16T05:38:04;68020.13;;;15.44;100.00
5988;BME280;3021;51.000;6.980;2022-10-16T05:40:30;68020.72;;;15.45;100.00
5988;BME280;3021;51.000;6.980;2022-10-16T05:42:55;68020.59;;;15.42;100.00
5988;BME280;3021;51.000;6.980;2022-10-16T05:45:20;68017.81;;;15.42;100.00
5988;BME280;3021;51.000;6.980;2022-10-16T05:47:46;68012.00;;;15.37;100.00
5988;BME280;3021;51.000;6.980;2022-10-16T05:50:11;68005.63;;;15.31;100.00
5988;BME280;3021;51.000;6.980;2022-10-16T05:52:36;67994.19;;;15.24;100.00
5988;BME280;3021;51.000;6.980;2022-10-16T05:55:02;67985.34;;;15.13;100.00
5988;BME280;3021;51.000;6.980;2022-10-16T05:57:28;67972.44;;;14.99;100.00
5988;BME280;3021;51.000;6.980;2022-10-16T05:59:53;67949.97;;;14.82;100.00
5988;BME280;3021;51.000;6.980;2022-10-16T06:02:18;67936.03;;;14.69;100.00
5988;BME280;3021;51.000;6.980;2022-10-16T06:04:44;67933.59;;;14.65;100.00
5988;BME280;3021;51.000;6.980;2022-10-16T06:07:09;67930.13;;;14.62;100.00
5988;BME280;3021;51.000;6.980;2022-10-16T06:09:34;67917.47;;;14.53;100.00
5988;BME280;3021;51.000;6.980;2022-10-16T06:12:00;67918.06;;;14.54;100.00
5988;BME280;3021;51.000;6.980;2022-10-16T06:14:25;67916.88;;;14.52;100.00
5988;BME280;3021;51.000;6.980;2022-10-16T06:16:50;67909.94;;;14.46;100.00
5988;BME280;3021;51.000;6.980;2022-10-16T06:19:16;67898.47;;;14.39;100.00
5988;BME280;3021;51.000;6.980;2022-10-16T06:21:42;67916.31;;;14.52;100.00
5988;BME280;3021;51.000;6.980;2022-10-16T06:24:08;67919.78;;;14.55;100.00
5988;BME280;3021;51.000;6.980;2022-10-16T06:26:33;67926.16;;;14.61;100.00
5988;BME280;3021;51.000;6.980;2022-10-16T06:28:59;67907.75;;;14.47;100.00
5988;BME280;3021;51.000;6.980;2022-10-16T06:31:25;67919.06;;;14.52;100.00
5988;BME280;3021;51.000;6.980;2022-10-16T06:33:53;67924.88;;;14.57;100.00
5988;BME280;3021;51.000;6.980;2022-10-16T06:36:20;67932.44;;;14.64;100.00
5988;BME280;3021;51.000;6.980;2022-10-16T06:38:46;67947.06;;;14.79;100.00
5988;BME280;3021;51.000;6.980;2022-10-16T06:41:13;67941.25;;;14.74;100.00
5988;BME280;3021;51.000;6.980;2022-10-16T06:43:39;67970.84;;;15.00;100.00
5988;BME280;3021;51.000;6.980;2022-10-16T06:46:06;67978.38;;;15.07;100.00
5988;BME280;3021;51.000;6.980;2022-10-16T06:48:34;67998.09;;;15.25;100.00
5988;BME280;3021;51.000;6.980;2022-10-16T06:51:01;68008.09;;;15.36;100.00
5988;BME280;3021;51.000;6.980;2022-10-16T06:53:29;68023.03;;;15.47;100.00
5988;BME280;3021;51.000;6.980;2022-10-16T06:55:54;68039.00;;;15.56;100.00
5988;BME280;3021;51.000;6.980;2022-10-16T06:58:20;68040.44;;;15.62;100.00
5988;BME280;3021;51.000;6.980;2022-10-16T07:00:46;68052.06;;;15.72;100.00
5988;BME280;3021;51.000;6.980;2022-10-16T07:03:11;68055.53;;;15.76;100.00
5988;BME280;3021;51.000;6.980;2022-10-16T07:05:43;68060.75;;;15.80;100.00
5988;BME280;3021;51.000;6.980;2022-10-16T07:08:09;68068.88;;;15.87;100.00
5988;BME280;3021;51.000;6.980;2022-10-16T07:10:34;68083.41;;;16.00;100.00
5988;BME280;3021;51.000;6.980;2022-10-16T07:13:00;68096.75;;;16.12;100.00
5988;BME280;3021;51.000;6.980;2022-10-16T07:15:26;68103.88;;;16.21;100.00
5988;BME280;3021;51.000;6.980;2022-10-16T07:17:51;68107.81;;;16.22;100.00
5988;BME280;3021;51.000;6.980;2022-10-16T07:20:17;68123.34;;;16.33;100.00
5988;BME280;3021;51.000;6.980;2022-10-16T07:22:42;68152.63;;;16.64;100.00
5988;BME280;3021;51.000;6.980;2022-10-16T07:25:08;68176.88;;;16.83;100.00
5988;BME280;3021;51.000;6.980;2022-10-16T07:27:33;68179.78;;;16.86;100.00
5988;BME280;3021;51.000;6.980;2022-10-16T07:29:59;68179.22;;;16.85;100.00
5988;BME280;3021;51.000;6.980;2022-10-16T07:32:24;68178.63;;;16.85;100.00
5988;BME280;3021;51.000;6.980;2022-10-16T07:34:51;68182.28;;;16.90;100.00
5988;BME280;3021;51.000;6.980;2022-10-16T07:37:17;68190.41;;;16.98;100.00
5988;BME280;3021;51.000;6.980;2022-10-16T07:39:42;68184.03;;;16.92;100.00
5988;BME280;3021;51.000;6.980;2022-10-16T07:42:07;68181.97;;;16.85;100.00
5988;BME280;3021;51.000;6.980;2022-10-16T07:44:33;68177.47;;;16.84;100.00
5988;BME280;3021;51.000;6.980;2022-10-16T07:46:58;68175.13;;;16.82;100.00
5988;BME280;3021;51.000;6.980;2022-10-16T07:49:24;68172.97;;;16.82;100.00
5988;BME280;3021;51.000;6.980;2022-10-16T07:51:49;68222.34;;;17.26;100.00
5988;BME280;3021;51.000;6.980;2022-10-16T07:54:15;68370.00;;;18.57;100.00
5988;BME280;3021;51.000;6.980;2022-10-16T07:56:40;68446.81;;;19.25;100.00
5988;BME280;3021;51.000;6.980;2022-10-16T07:59:05;68366.53;;;18.54;100.00
5988;BME280;3021;51.000;6.980;2022-10-16T08:01:31;68299.06;;;17.94;100.00
5988;BME280;3021;51.000;6.980;2022-10-16T08:03:56;68266.38;;;17.62;100.00
5988;BME280;3021;51.000;6.980;2022-10-16T08:06:22;68246.16;;;17.47;100.00
5988;BME280;3021;51.000;6.980;2022-10-16T08:08:47;68241.97;;;17.41;100.00
5988;BME280;3021;51.000;6.980;2022-10-16T08:11:13;68238.50;;;17.38;100.00
5988;BME280;3021;51.000;6.980;2022-10-16T08:13:40;68225.84;;;17.29;100.00
5988;BME280;3021;51.000;6.980;2022-10-16T08:16:06;68235.00;;;17.35;100.00
5988;BME280;3021;51.000;6.980;2022-10-16T08:18:36;68251.84;;;17.50;100.00
5988;BME280;3021;51.000;6.980;2022-10-16T08:21:03;68274.06;;;17.72;100.00
5988;BME280;3021;51.000;6.980;2022-10-16T08:23:29;68301.84;;;17.94;100.00
5988;BME280;3021;51.000;6.980;2022-10-16T08:25:55;68344.88;;;18.32;100.00
5988;BME280;3021;51.000;6.980;2022-10-16T08:28:22;68361.28;;;18.49;100.00
5988;BME280;3021;51.000;6.980;2022-10-16T08:30:47;68358.81;;;18.44;100.00
5988;BME280;3021;51.000;6.980;2022-10-16T08:33:13;68343.13;;;18.30;100.00
5988;BME280;3021;51.000;6.980;2022-10-16T08:35:38;68354.16;;;18.40;100.00
5988;BME280;3021;51.000;6.980;2022-10-16T08:38:04;68369.31;;;18.54;100.00
5988;BME280;3021;51.000;6.980;2022-10-16T08:40:31;68378.16;;;18.64;100.00
5988;BME280;3021;51.000;6.980;2022-10-16T08:43:04;68383.97;;;18.69;100.00
5988;BME280;3021;51.000;6.980;2022-10-16T08:48:20;68432.72;;;19.10;100.00
5988;BME280;3021;51.000;6.980;2022-10-16T08:50:50;68443.31;;;19.22;100.00
5988;BME280;3021;51.000;6.980;2022-10-16T08:53:29;68445.66;;;19.24;100.00
5988;BME280;3021;51.000;6.980;2022-10-16T08:55:56;68458.47;;;19.35;100.00
5988;BME280;3021;51.000;6.980;2022-10-16T08:58:27;68465.44;;;19.41;100.00
5988;BME280;3021;51.000;6.980;2022-10-16T09:00:54;68475.31;;;19.50;100.00
5988;BME280;3021;51.000;6.980;2022-10-16T09:06:19;68582.34;;;20.42;100.00
5988;BME280;3021;51.000;6.980;2022-10-16T09:09:06;68627.47;;;20.87;100.00
5988;BME280;3021;51.000;6.980;2022-10-16T09:11:47;68710.00;;;21.55;100.00
5988;BME280;3021;51.000;6.980;2022-10-16T09:17:24;69076.06;;;24.80;100.00
5988;BME280;3021;51.000;6.980;2022-10-16T09:19:58;69205.16;;;25.92;100.00
5988;BME280;3021;51.000;6.980;2022-10-16T09:22:27;69286.72;;;26.68;100.00
5988;BME280;3021;51.000;6.980;2022-10-16T09:24:55;69441.94;;;28.07;100.00
5988;BME280;3021;51.000;6.980;2022-10-16T09:27:25;69533.81;;;28.86;100.00
5988;BME280;3021;51.000;6.980;2022-10-16T09:29:51;69584.22;;;29.30;100.00
5988;BME280;3021;51.000;6.980;2022-10-16T09:32:19;69636.88;;;29.74;100.00
5988;BME280;3021;51.000;6.980;2022-10-16T09:34:49;69578.22;;;29.22;100.00
5988;BME280;3021;51.000;6.980;2022-10-16T09:37:18;69526.78;;;28.79;100.00
5988;BME280;3021;51.000;6.980;2022-10-16T09:39:52;69555.47;;;29.05;100.00
5988;BME280;3021;51.000;6.980;2022-10-16T09:42:27;69555.38;;;29.02;100.00
5988;BME280;3021;51.000;6.980;2022-10-16T09:44:56;69560.66;;;29.07;100.00
5988;BME280;3021;51.000;6.980;2022-10-16T09:47:23;69476.19;;;28.30;100.00
5988;BME280;3021;51.000;6.980;2022-10-16T09:50:02;69455.22;;;28.14;100.00
5988;BME280;3021;51.000;6.980;2022-10-16T09:52:30;69479.22;;;28.35;100.00
5988;BME280;3021;51.000;6.980;2022-10-16T09:55:00;69523.84;;;28.77;100.00
5988;BME280;3021;51.000;6.980;2022-10-16T09:57:27;69567.09;;;29.12;100.00
5988;BME280;3021;51.000;6.980;2022-10-16T09:59:54;69562.31;;;29.06;100.00
5988;BME280;3021;51.000;6.980;2022-10-16T10:02:36;69552.56;;;29.02;100.00
5988;BME280;3021;51.000;6.980;2022-10-16T10:05:05;69617.03;;;29.59;100.00
5988;BME280;3021;51.000;6.980;2022-10-16T10:07:33;69700.19;;;30.29;100.00
5988;BME280;3021;51.000;6.980;2022-10-16T10:10:03;69767.78;;;30.91;100.00
5988;BME280;3021;51.000;6.980;2022-10-16T10:12:30;69761.91;;;30.86;100.00
5988;BME280;3021;51.000;6.980;2022-10-16T10:15:11;69721.34;;;30.48;100.00
5988;BME280;3021;51.000;6.980;2022-10-16T10:17:53;69624.06;;;29.65;100.00
5988;BME280;3021;51.000;6.980;2022-10-16T10:20:30;69557.25;;;29.06;100.00
5988;BME280;3021;51.000;6.980;2022-10-16T10:22:59;69413.13;;;27.80;100.00
5988;BME280;3021;51.000;6.980;2022-10-16T10:31:25;69052.72;;;24.60;100.00
5988;BME280;3021;51.000;6.980;2022-10-16T10:36:42;68925.84;;;23.45;100.00
5988;BME280;3021;51.000;6.980;2022-10-16T10:39:35;68903.78;;;23.28;100.00
5988;BME280;3021;51.000;6.980;2022-10-16T10:47:43;68869.78;;;22.96;100.00
5988;BME280;3021;51.000;6.980;2022-10-16T10:50:20;68851.81;;;22.83;100.00
5988;BME280;3021;51.000;6.980;2022-10-16T10:55:43;68823.59;;;22.53;100.00
5988;BME280;3021;51.000;6.980;2022-10-16T11:01:26;68781.22;;;22.20;100.00
5988;BME280;3021;51.000;6.980;2022-10-16T11:04:06;68779.59;;;22.21;100.00
5988;BME280;3021;51.000;6.980;2022-10-16T11:06:58;68826.03;;;22.57;100.00
5988;BME280;3021;51.000;6.980;2022-10-16T11:09:28;68826.63;;;22.58;100.00
5988;BME280;3021;51.000;6.980;2022-10-16T11:12:09;68811.00;;;22.47;100.00
5988;BME280;3021;51.000;6.980;2022-10-16T11:14:48;68807.81;;;22.39;100.00
5988;BME280;3021;51.000;6.980;2022-10-16T11:17:38;68782.28;;;22.19;100.00
5988;BME280;3021;51.000;6.980;2022-10-16T11:20:18;68771.19;;;22.09;100.00
5988;BME280;3021;51.000;6.980;2022-10-16T11:25:21;68778.91;;;22.18;100.00
5988;BME280;3021;51.000;6.980;2022-10-16T11:30:29;68762.56;;;22.04;100.00
5988;BME280;3021;51.000;6.980;2022-10-16T11:33:20;68754.28;;;21.94;100.00
5988;BME280;3021;51.000;6.980;2022-10-16T11:36:05;68739.13;;;21.81;100.00
5988;BME280;3021;51.000;6.980;2022-10-16T11:38:55;68731.09;;;21.76;100.00
5988;BME280;3021;51.000;6.980;2022-10-16T11:46:40;68708.81;;;21.54;100.00
5988;BME280;3021;51.000;6.980;2022-10-16T11:49:19;68722.69;;;21.64;100.00
5988;BME280;3021;51.000;6.980;2022-10-16T11:54:51;68769.00;;;22.09;100.00
5988;BME280;3021;51.000;6.980;2022-10-16T11:57:32;68767.13;;;22.05;100.00
5988;BME280;3021;51.000;6.980;2022-10-16T12:00:03;68761.41;;;22.03;100.00
5988;BME280;3021;51.000;6.980;2022-10-16T12:03:39;68756.03;;;21.96;100.00
5988;BME280;3021;51.000;6.980;2022-10-16T12:05:55;68716.97;;;21.61;100.00
5988;BME280;3021;51.000;6.980;2022-10-16T12:08:23;68701.81;;;21.48;100.00
5988;BME280;3021;51.000;6.980;2022-10-16T12:10:49;68671.03;;;21.23;100.00
5988;BME280;3021;51.000;6.980;2022-10-16T12:13:33;68651.09;;;21.03;100.00
5988;BME280;3021;51.000;6.980;2022-10-16T12:18:37;68639.44;;;20.93;100.00
5988;BME280;3021;51.000;6.980;2022-10-16T12:21:03;68639.31;;;20.90;100.00
5988;BME280;3021;51.000;6.980;2022-10-16T12:23:36;68629.53;;;20.84;100.00
5988;BME280;3021;51.000;6.980;2022-10-16T12:26:02;68629.53;;;20.84;100.00
5988;BME280;3021;51.000;6.980;2022-10-16T12:28:32;68637.69;;;20.91;100.00
5988;BME280;3021;51.000;6.980;2022-10-16T12:31:05;68664.03;;;21.17;100.00
5988;BME280;3021;51.000;6.980;2022-10-16T12:33:33;68664.50;;;21.15;100.00
5988;BME280;3021;51.000;6.980;2022-10-16T12:36:01;68675.56;;;21.24;100.00
5988;BME280;3021;51.000;6.980;2022-10-16T12:38:31;68675.13;;;21.27;100.00
5988;BME280;3021;51.000;6.980;2022-10-16T12:41:07;68672.66;;;21.22;100.00
5988;BME280;3021;51.000;6.980;2022-10-16T12:43:46;68655.19;;;21.06;100.00
5988;BME280;3021;51.000;6.980;2022-10-16T12:48:39;68666.25;;;21.16;100.00
5988;BME280;3021;51.000;6.980;2022-10-16T13:05:29;68634.06;;;20.85;100.00
5988;BME280;3021;51.000;6.980;2022-10-16T13:20:40;68617.91;;;20.74;100.00
5988;BME280;3021;51.000;6.980;2022-10-16T13:23:19;68606.94;;;20.66;100.00
5988;BME280;3021;51.000;6.980;2022-10-16T13:26:13;68609.13;;;20.66;100.00
5988;BME280;3021;51.000;6.980;2022-10-16T13:28:42;68605.63;;;20.63;100.00
5988;BME280;3021;51.000;6.980;2022-10-16T13:31:22;68593.53;;;20.54;100.00
5988;BME280;3021;51.000;6.980;2022-10-16T13:33:54;68598.06;;;20.56;100.00
5988;BME280;3021;51.000;6.980;2022-10-16T13:36:29;68600.41;;;20.58;100.00
5988;BME280;3021;51.000;6.980;2022-10-16T13:41:40;68594.56;;;20.53;100.00
5988;BME280;3021;51.000;6.980;2022-10-16T13:44:13;68584.81;;;20.47;100.00
5988;BME280;3021;51.000;6.980;2022-10-16T13:46:39;68575.94;;;20.36;100.00
5988;BME280;3021;51.000;6.980;2022-10-16T13:49:11;68563.13;;;20.25;100.00
5988;BME280;3021;51.000;6.980;2022-10-16T13:51:37;68555.56;;;20.18;100.00
5988;BME280;3021;51.000;6.980;2022-10-16T13:54:02;68552.63;;;20.16;100.00
5988;BME280;3021;51.000;6.980;2022-10-16T13:56:30;68552.06;;;20.15;100.00
5988;BME280;3021;51.000;6.980;2022-10-16T13:59:20;68544.50;;;20.09;100.00
5988;BME280;3021;51.000;6.980;2022-10-16T14:01:47;68541.56;;;20.06;100.00
5988;BME280;3021;51.000;6.980;2022-10-16T14:04:13;68543.91;;;20.08;100.00
5988;BME280;3021;51.000;6.980;2022-10-16T14:06:41;68549.63;;;20.11;100.00
5988;BME280;3021;51.000;6.980;2022-10-16T14:09:28;68546.81;;;20.11;100.00
5988;BME280;3021;51.000;6.980;2022-10-16T14:12:06;68544.50;;;20.09;100.00
5988;BME280;3021;51.000;6.980;2022-10-16T14:14:44;68550.88;;;20.14;100.00
5988;BME280;3021;51.000;6.980;2022-10-16T14:17:14;68545.66;;;20.10;100.00
5988;BME280;3021;51.000;6.980;2022-10-16T14:19:40;68548.56;;;20.12;100.00
5988;BME280;3021;51.000;6.980;2022-10-16T14:22:29;68549.72;;;20.13;100.00
5988;BME280;3021;51.000;6.980;2022-10-16T14:24:55;68552.63;;;20.16;100.00
5988;BME280;3021;51.000;6.980;2022-10-16T14:27:31;68561.38;;;20.24;100.00
5988;BME280;3021;51.000;6.980;2022-10-16T14:30:24;68560.22;;;20.23;100.00
5988;BME280;3021;51.000;6.980;2022-10-16T14:33:22;68557.44;;;20.23;100.00
5988;BME280;3021;51.000;6.980;2022-10-16T14:38:40;68567.66;;;20.27;100.00
5988;BME280;3021;51.000;6.980;2022-10-16T14:41:07;68575.22;;;20.33;100.00
5988;BME280;3021;51.000;6.980;2022-10-16T14:43:42;68577.69;;;20.38;100.00
5988;BME280;3021;51.000;6.980;2022-10-16T14:46:13;68589.78;;;20.46;100.00